sensor_id;sensor_type;location;lat;lon;timestamp;temperature;humidity
59651;DHT22;45954;49.768;8.636;2022-09-09T00:02:18;19.80;94.90
59651;DHT22;45954;49.768;8.636;2022-09-09T00:07:45;19.60;95.30
59651;DHT22;45954;49.768;8.636;2022-09-09T00:16:07;19.80;95.10
59651;DHT22;45954;49.768;8.636;2022-09-09T00:19:05;19.50;95.50
59651;DHT22;45954;49.768;8.636;2022-09-09T00:21:36;19.60;95.40
59651;DHT22;45954;49.768;8.636;2022-09-09T00:24:26;19.60;95.80
59651;DHT22;45954;49.768;8.636;2022-09-09T00:27:08;19.80;95.40
59651;DHT22;45954;49.768;8.636;2022-09-09T00:32:39;19.80;95.60
59651;DHT22;45954;49.768;8.636;2022-09-09T00:35:34;19.80;95.40
59651;DHT22;45954;49.768;8.636;2022-09-09T00:38:35;19.80;95.30
59651;DHT22;45954;49.768;8.636;2022-09-09T00:41:38;19.90;95.10
59651;DHT22;45954;49.768;8.636;2022-09-09T00:50:17;19.80;94.90
59651;DHT22;45954;49.768;8.636;2022-09-09T00:56:13;19.60;95.30
59651;DHT22;45954;49.768;8.636;2022-09-09T01:01:51;19.60;95.50
59651;DHT22;45954;49.768;8.636;2022-09-09T01:04:29;19.50;95.50
59651;DHT22;45954;49.768;8.636;2022-09-09T01:07:15;19.60;95.60
59651;DHT22;45954;49.768;8.636;2022-09-09T01:12:38;19.60;95.40
59651;DHT22;45954;49.768;8.636;2022-09-09T01:18:11;19.40;95.80
59651;DHT22;45954;49.768;8.636;2022-09-09T01:24:19;19.40;95.90
59651;DHT22;45954;49.768;8.636;2022-09-09T01:27:01;19.40;96.10
59651;DHT22;45954;49.768;8.636;2022-09-09T01:29:28;19.20;95.90
59651;DHT22;45954;49.768;8.636;2022-09-09T01:32:01;19.20;96.10
59651;DHT22;45954;49.768;8.636;2022-09-09T01:34:35;19.30;96.20
59651;DHT22;45954;49.768;8.636;2022-09-09T01:37:02;19.40;96.00
59651;DHT22;45954;49.768;8.636;2022-09-09T01:39:34;19.50;95.90
59651;DHT22;45954;49.768;8.636;2022-09-09T01:42:02;19.30;96.40
59651;DHT22;45954;49.768;8.636;2022-09-09T01:44:30;19.10;96.80
59651;DHT22;45954;49.768;8.636;2022-09-09T01:46:56;19.00;96.60
59651;DHT22;45954;49.768;8.636;2022-09-09T01:49:23;19.00;96.80
59651;DHT22;45954;49.768;8.636;2022-09-09T01:51:54;19.10;96.90
59651;DHT22;45954;49.768;8.636;2022-09-09T01:54:24;19.10;96.80
59651;DHT22;45954;49.768;8.636;2022-09-09T02:08:48;19.10;96.90
59651;DHT22;45954;49.768;8.636;2022-09-09T02:11:18;19.10;96.80
59651;DHT22;45954;49.768;8.636;2022-09-09T02:13:48;18.90;97.10
59651;DHT22;45954;49.768;8.636;2022-09-09T02:16:22;18.90;97.10
59651;DHT22;45954;49.768;8.636;2022-09-09T02:19:18;19.00;97.00
59651;DHT22;45954;49.768;8.636;2022-09-09T02:21:59;19.10;97.00
59651;DHT22;45954;49.768;8.636;2022-09-09T02:24:28;18.90;97.10
59651;DHT22;45954;49.768;8.636;2022-09-09T02:26:57;19.10;96.90
59651;DHT22;45954;49.768;8.636;2022-09-09T02:29:33;19.10;97.00
59651;DHT22;45954;49.768;8.636;2022-09-09T02:32:08;18.90;97.20
59651;DHT22;45954;49.768;8.636;2022-09-09T02:34:45;18.80;97.60
59651;DHT22;45954;49.768;8.636;2022-09-09T02:37:18;18.90;97.30
59651;DHT22;45954;49.768;8.636;2022-09-09T02:39:45;18.90;97.40
59651;DHT22;45954;49.768;8.636;2022-09-09T02:42:10;18.70;97.60
59651;DHT22;45954;49.768;8.636;2022-09-09T02:44:36;19.00;97.40
59651;DHT22;45954;49.768;8.636;2022-09-09T02:50:36;18.60;97.90
59651;DHT22;45954;49.768;8.636;2022-09-09T02:53:17;18.90;97.60
59651;DHT22;45954;49.768;8.636;2022-09-09T02:56:00;18.60;97.80
59651;DHT22;45954;49.768;8.636;2022-09-09T02:58:30;18.80;97.40
59651;DHT22;45954;49.768;8.636;2022-09-09T03:00:58;19.00;97.20
59651;DHT22;45954;49.768;8.636;2022-09-09T03:03:27;18.90;97.30
59651;DHT22;45954;49.768;8.636;2022-09-09T03:05:53;19.00;97.10
59651;DHT22;45954;49.768;8.636;2022-09-09T03:08:18;18.90;97.30
59651;DHT22;45954;49.768;8.636;2022-09-09T03:10:44;18.70;97.30
59651;DHT22;45954;49.768;8.636;2022-09-09T03:13:10;18.80;97.60
59651;DHT22;45954;49.768;8.636;2022-09-09T03:15:38;18.80;97.60
59651;DHT22;45954;49.768;8.636;2022-09-09T03:18:04;18.70;97.50
59651;DHT22;45954;49.768;8.636;2022-09-09T03:20:30;18.80;97.50
59651;DHT22;45954;49.768;8.636;2022-09-09T03:22:59;18.80;97.50
59651;DHT22;45954;49.768;8.636;2022-09-09T03:25:25;18.70;97.70
59651;DHT22;45954;49.768;8.636;2022-09-09T03:27:54;18.70;97.80
59651;DHT22;45954;49.768;8.636;2022-09-09T03:30:25;18.50;98.00
59651;DHT22;45954;49.768;8.636;2022-09-09T03:32:52;18.60;98.20
59651;DHT22;45954;49.768;8.636;2022-09-09T03:35:19;18.70;97.80
59651;DHT22;45954;49.768;8.636;2022-09-09T03:37:45;18.80;97.50
59651;DHT22;45954;49.768;8.636;2022-09-09T03:40:11;18.60;98.00
59651;DHT22;45954;49.768;8.636;2022-09-09T03:42:39;18.50;98.00
59651;DHT22;45954;49.768;8.636;2022-09-09T03:45:07;18.60;97.90
59651;DHT22;45954;49.768;8.636;2022-09-09T03:47:35;18.70;97.90
59651;DHT22;45954;49.768;8.636;2022-09-09T03:50:02;18.70;97.70
59651;DHT22;45954;49.768;8.636;2022-09-09T03:52:29;18.80;97.90
59651;DHT22;45954;49.768;8.636;2022-09-09T03:54:56;18.60;98.00
59651;DHT22;45954;49.768;8.636;2022-09-09T03:57:22;18.80;97.70
59651;DHT22;45954;49.768;8.636;2022-09-09T03:59:48;18.70;98.00
59651;DHT22;45954;49.768;8.636;2022-09-09T04:02:14;18.70;98.00
59651;DHT22;45954;49.768;8.636;2022-09-09T04:04:40;18.70;97.90
59651;DHT22;45954;49.768;8.636;2022-09-09T04:07:06;18.70;97.80
59651;DHT22;45954;49.768;8.636;2022-09-09T04:09:33;18.60;97.90
59651;DHT22;45954;49.768;8.636;2022-09-09T04:12:00;18.80;97.70
59651;DHT22;45954;49.768;8.636;2022-09-09T04:14:26;18.80;97.50
59651;DHT22;45954;49.768;8.636;2022-09-09T04:16:54;18.70;97.50
59651;DHT22;45954;49.768;8.636;2022-09-09T04:19:21;18.70;97.70
59651;DHT22;45954;49.768;8.636;2022-09-09T04:21:47;18.90;97.50
59651;DHT22;45954;49.768;8.636;2022-09-09T04:24:17;18.60;97.90
59651;DHT22;45954;49.768;8.636;2022-09-09T04:26:43;18.50;98.10
59651;DHT22;45954;49.768;8.636;2022-09-09T04:29:10;18.70;98.00
59651;DHT22;45954;49.768;8.636;2022-09-09T04:31:36;18.50;98.60
59651;DHT22;45954;49.768;8.636;2022-09-09T04:34:08;18.50;98.40
59651;DHT22;45954;49.768;8.636;2022-09-09T04:36:34;18.30;98.60
59651;DHT22;45954;49.768;8.636;2022-09-09T04:39:00;18.40;98.40
59651;DHT22;45954;49.768;8.636;2022-09-09T04:41:27;18.40;98.20
59651;DHT22;45954;49.768;8.636;2022-09-09T04:43:54;18.40;98.60
59651;DHT22;45954;49.768;8.636;2022-09-09T04:46:21;18.70;98.10
59651;DHT22;45954;49.768;8.636;2022-09-09T04:48:49;18.80;98.00
59651;DHT22;45954;49.768;8.636;2022-09-09T04:51:15;19.00;97.60
59651;DHT22;45954;49.768;8.636;2022-09-09T04:53:41;18.90;97.60
59651;DHT22;45954;49.768;8.636;2022-09-09T04:56:10;18.60;98.00
59651;DHT22;45954;49.768;8.636;2022-09-09T04:58:38;18.40;98.30
59651;DHT22;45954;49.768;8.636;2022-09-09T05:01:17;18.60;98.00
59651;DHT22;45954;49.768;8.636;2022-09-09T05:03:45;18.60;98.00
59651;DHT22;45954;49.768;8.636;2022-09-09T05:06:13;18.60;97.90
59651;DHT22;45954;49.768;8.636;2022-09-09T05:08:44;18.40;98.10
59651;DHT22;45954;49.768;8.636;2022-09-09T05:11:21;18.30;98.30
59651;DHT22;45954;49.768;8.636;2022-09-09T05:13:52;18.50;98.30
59651;DHT22;45954;49.768;8.636;2022-09-09T05:16:20;18.80;97.60
59651;DHT22;45954;49.768;8.636;2022-09-09T05:18:47;18.60;97.90
59651;DHT22;45954;49.768;8.636;2022-09-09T05:21:14;18.40;98.20
59651;DHT22;45954;49.768;8.636;2022-09-09T05:23:41;18.40;98.20
59651;DHT22;45954;49.768;8.636;2022-09-09T05:26:11;18.40;98.40
59651;DHT22;45954;49.768;8.636;2022-09-09T05:28:39;18.50;98.40
59651;DHT22;45954;49.768;8.636;2022-09-09T05:31:10;18.50;98.30
59651;DHT22;45954;49.768;8.636;2022-09-09T05:33:39;18.60;98.20
59651;DHT22;45954;49.768;8.636;2022-09-09T05:36:12;18.40;98.60
59651;DHT22;45954;49.768;8.636;2022-09-09T05:38:40;18.60;98.30
59651;DHT22;45954;49.768;8.636;2022-09-09T05:41:08;18.80;97.60
59651;DHT22;45954;49.768;8.636;2022-09-09T05:43:35;18.70;97.80
59651;DHT22;45954;49.768;8.636;2022-09-09T05:46:08;18.70;98.00
59651;DHT22;45954;49.768;8.636;2022-09-09T05:48:38;18.80;97.80
59651;DHT22;45954;49.768;8.636;2022-09-09T05:51:08;18.70;98.00
59651;DHT22;45954;49.768;8.636;2022-09-09T05:53:37;18.50;98.30
59651;DHT22;45954;49.768;8.636;2022-09-09T05:56:12;18.50;98.50
59651;DHT22;45954;49.768;8.636;2022-09-09T05:58:51;18.90;97.70
59651;DHT22;45954;49.768;8.636;2022-09-09T06:01:22;18.90;98.00
59651;DHT22;45954;49.768;8.636;2022-09-09T06:03:50;19.00;97.50
59651;DHT22;45954;49.768;8.636;2022-09-09T06:06:20;18.90;97.60
59651;DHT22;45954;49.768;8.636;2022-09-09T06:08:50;18.90;98.00
59651;DHT22;45954;49.768;8.636;2022-09-09T06:11:19;19.10;97.50
59651;DHT22;45954;49.768;8.636;2022-09-09T06:13:48;18.90;97.60
59651;DHT22;45954;49.768;8.636;2022-09-09T06:16:18;18.90;98.00
59651;DHT22;45954;49.768;8.636;2022-09-09T06:18:45;19.00;97.60
59651;DHT22;45954;49.768;8.636;2022-09-09T06:21:23;19.10;98.10
59651;DHT22;45954;49.768;8.636;2022-09-09T06:23:50;19.40;97.60
59651;DHT22;45954;49.768;8.636;2022-09-09T06:26:22;19.40;97.00
59651;DHT22;45954;49.768;8.636;2022-09-09T06:28:53;19.20;97.40
59651;DHT22;45954;49.768;8.636;2022-09-09T06:31:22;19.20;97.60
59651;DHT22;45954;49.768;8.636;2022-09-09T06:33:50;19.60;97.20
59651;DHT22;45954;49.768;8.636;2022-09-09T06:36:29;19.30;97.60
59651;DHT22;45954;49.768;8.636;2022-09-09T06:38:56;19.40;97.30
59651;DHT22;45954;49.768;8.636;2022-09-09T06:41:24;19.20;97.70
59651;DHT22;45954;49.768;8.636;2022-09-09T06:43:55;19.00;97.90
59651;DHT22;45954;49.768;8.636;2022-09-09T06:46:23;19.00;98.20
59651;DHT22;45954;49.768;8.636;2022-09-09T06:48:55;19.10;97.80
59651;DHT22;45954;49.768;8.636;2022-09-09T06:51:27;19.00;98.00
59651;DHT22;45954;49.768;8.636;2022-09-09T06:53:57;19.20;97.90
59651;DHT22;45954;49.768;8.636;2022-09-09T06:56:28;19.10;98.50
59651;DHT22;45954;49.768;8.636;2022-09-09T06:58:58;19.30;98.00
59651;DHT22;45954;49.768;8.636;2022-09-09T07:01:28;19.50;97.80
59651;DHT22;45954;49.768;8.636;2022-09-09T07:03:58;19.20;97.90
59651;DHT22;45954;49.768;8.636;2022-09-09T07:06:33;19.50;97.50
59651;DHT22;45954;49.768;8.636;2022-09-09T07:09:06;19.40;98.10
59651;DHT22;45954;49.768;8.636;2022-09-09T07:11:41;19.40;98.00
59651;DHT22;45954;49.768;8.636;2022-09-09T07:14:09;19.40;97.60
59651;DHT22;45954;49.768;8.636;2022-09-09T07:16:39;19.60;97.40
59651;DHT22;45954;49.768;8.636;2022-09-09T07:19:06;19.40;97.60
59651;DHT22;45954;49.768;8.636;2022-09-09T07:21:32;19.30;97.80
59651;DHT22;45954;49.768;8.636;2022-09-09T07:23:59;19.40;98.30
59651;DHT22;45954;49.768;8.636;2022-09-09T07:26:28;19.60;97.20
59651;DHT22;45954;49.768;8.636;2022-09-09T07:28:56;19.60;97.50
59651;DHT22;45954;49.768;8.636;2022-09-09T07:31:31;19.60;97.30
59651;DHT22;45954;49.768;8.636;2022-09-09T07:33:59;19.60;97.60
59651;DHT22;45954;49.768;8.636;2022-09-09T07:36:37;19.20;97.80
59651;DHT22;45954;49.768;8.636;2022-09-09T07:39:12;19.00;98.20
59651;DHT22;45954;49.768;8.636;2022-09-09T07:41:45;19.10;98.50
59651;DHT22;45954;49.768;8.636;2022-09-09T07:44:18;19.50;98.40
59651;DHT22;45954;49.768;8.636;2022-09-09T07:46:47;19.80;98.20
59651;DHT22;45954;49.768;8.636;2022-09-09T07:49:14;19.80;97.80
59651;DHT22;45954;49.768;8.636;2022-09-09T07:51:43;19.70;98.00
59651;DHT22;45954;49.768;8.636;2022-09-09T07:54:13;19.90;97.60
59651;DHT22;45954;49.768;8.636;2022-09-09T07:56:41;20.00;97.60
59651;DHT22;45954;49.768;8.636;2022-09-09T07:59:08;20.20;97.50
59651;DHT22;45954;49.768;8.636;2022-09-09T08:01:38;20.20;97.30
59651;DHT22;45954;49.768;8.636;2022-09-09T08:04:12;20.20;97.70
59651;DHT22;45954;49.768;8.636;2022-09-09T08:06:47;20.10;97.40
59651;DHT22;45954;49.768;8.636;2022-09-09T08:09:15;19.80;97.60
59651;DHT22;45954;49.768;8.636;2022-09-09T08:11:42;19.80;97.20
59651;DHT22;45954;49.768;8.636;2022-09-09T08:14:10;19.70;97.50
59651;DHT22;45954;49.768;8.636;2022-09-09T08:16:44;19.70;97.80
59651;DHT22;45954;49.768;8.636;2022-09-09T08:19:11;20.50;97.30
59651;DHT22;45954;49.768;8.636;2022-09-09T08:21:40;20.70;96.50
59651;DHT22;45954;49.768;8.636;2022-09-09T08:24:08;20.70;96.00
59651;DHT22;45954;49.768;8.636;2022-09-09T08:26:38;20.80;96.40
59651;DHT22;45954;49.768;8.636;2022-09-09T08:29:08;20.90;95.30
59651;DHT22;45954;49.768;8.636;2022-09-09T08:31:38;21.00;95.20
59651;DHT22;45954;49.768;8.636;2022-09-09T08:34:06;21.10;94.80
59651;DHT22;45954;49.768;8.636;2022-09-09T08:36:35;21.00;95.60
59651;DHT22;45954;49.768;8.636;2022-09-09T08:39:06;20.90;95.90
59651;DHT22;45954;49.768;8.636;2022-09-09T08:53:16;20.90;95.40
59651;DHT22;45954;49.768;8.636;2022-09-09T08:55:53;20.90;95.70
59651;DHT22;45954;49.768;8.636;2022-09-09T08:58:29;20.90;95.60
59651;DHT22;45954;49.768;8.636;2022-09-09T09:10:25;21.20;94.80
59651;DHT22;45954;49.768;8.636;2022-09-09T09:12:54;21.20;94.90
59651;DHT22;45954;49.768;8.636;2022-09-09T09:15:33;21.40;94.80
59651;DHT22;45954;49.768;8.636;2022-09-09T09:18:03;21.60;94.40
59651;DHT22;45954;49.768;8.636;2022-09-09T09:20:47;22.00;94.70
59651;DHT22;45954;49.768;8.636;2022-09-09T09:23:27;22.00;93.70
59651;DHT22;45954;49.768;8.636;2022-09-09T09:26:01;22.10;93.70
59651;DHT22;45954;49.768;8.636;2022-09-09T09:28:31;22.10;94.10
59651;DHT22;45954;49.768;8.636;2022-09-09T09:31:08;22.00;94.00
59651;DHT22;45954;49.768;8.636;2022-09-09T09:33:54;21.90;94.10
59651;DHT22;45954;49.768;8.636;2022-09-09T09:36:24;21.60;94.80
59651;DHT22;45954;49.768;8.636;2022-09-09T09:39:00;21.80;94.20
59651;DHT22;45954;49.768;8.636;2022-09-09T09:41:38;21.50;94.50
59651;DHT22;45954;49.768;8.636;2022-09-09T09:44:29;21.30;95.10
59651;DHT22;45954;49.768;8.636;2022-09-09T09:47:19;21.50;95.00
59651;DHT22;45954;49.768;8.636;2022-09-09T09:50:00;21.30;95.00
59651;DHT22;45954;49.768;8.636;2022-09-09T09:52:29;21.40;95.20
59651;DHT22;45954;49.768;8.636;2022-09-09T09:54:57;21.00;94.90
59651;DHT22;45954;49.768;8.636;2022-09-09T09:57:29;20.90;95.20
59651;DHT22;45954;49.768;8.636;2022-09-09T10:02:44;21.40;95.00
59651;DHT22;45954;49.768;8.636;2022-09-09T10:05:17;21.30;95.30
59651;DHT22;45954;49.768;8.636;2022-09-09T10:07:47;21.50;95.20
59651;DHT22;45954;49.768;8.636;2022-09-09T10:16:52;22.80;93.50
59651;DHT22;45954;49.768;8.636;2022-09-09T10:19:35;22.60;93.30
59651;DHT22;45954;49.768;8.636;2022-09-09T10:22:27;22.10;93.50
59651;DHT22;45954;49.768;8.636;2022-09-09T10:25:37;22.00;94.00
59651;DHT22;45954;49.768;8.636;2022-09-09T10:28:36;22.00;93.50
59651;DHT22;45954;49.768;8.636;2022-09-09T10:31:37;22.10;93.00
59651;DHT22;45954;49.768;8.636;2022-09-09T10:34:45;22.30;93.30
59651;DHT22;45954;49.768;8.636;2022-09-09T10:37:43;22.50;92.60
59651;DHT22;45954;49.768;8.636;2022-09-09T10:40:32;22.80;92.10
59651;DHT22;45954;49.768;8.636;2022-09-09T10:50:09;23.20;91.70
59651;DHT22;45954;49.768;8.636;2022-09-09T10:53:08;23.20;91.60
59651;DHT22;45954;49.768;8.636;2022-09-09T10:55:44;23.10;91.60
59651;DHT22;45954;49.768;8.636;2022-09-09T10:58:30;23.40;92.00
59651;DHT22;45954;49.768;8.636;2022-09-09T11:01:12;23.20;90.90
59651;DHT22;45954;49.768;8.636;2022-09-09T11:04:25;22.60;91.80
59651;DHT22;45954;49.768;8.636;2022-09-09T11:07:02;23.10;91.90
59651;DHT22;45954;49.768;8.636;2022-09-09T11:09:39;23.20;90.90
59651;DHT22;45954;49.768;8.636;2022-09-09T11:12:16;23.10;91.50
59651;DHT22;45954;49.768;8.636;2022-09-09T11:14:50;23.60;90.60
59651;DHT22;45954;49.768;8.636;2022-09-09T11:17:40;23.30;90.50
59651;DHT22;45954;49.768;8.636;2022-09-09T11:20:12;23.40;90.50
59651;DHT22;45954;49.768;8.636;2022-09-09T11:22:54;23.40;90.30
59651;DHT22;45954;49.768;8.636;2022-09-09T11:25:34;23.60;89.70
59651;DHT22;45954;49.768;8.636;2022-09-09T11:35:37;24.20;88.60
59651;DHT22;45954;49.768;8.636;2022-09-09T11:38:26;24.20;89.30
59651;DHT22;45954;49.768;8.636;2022-09-09T11:41:02;24.10;88.50
59651;DHT22;45954;49.768;8.636;2022-09-09T11:46:04;24.20;89.50
59651;DHT22;45954;49.768;8.636;2022-09-09T11:48:36;24.30;89.50
59651;DHT22;45954;49.768;8.636;2022-09-09T11:51:24;24.20;89.60
59651;DHT22;45954;49.768;8.636;2022-09-09T11:53:57;23.90;90.00
59651;DHT22;45954;49.768;8.636;2022-09-09T11:56:32;23.50;90.00
59651;DHT22;45954;49.768;8.636;2022-09-09T11:59:05;23.00;90.50
59651;DHT22;45954;49.768;8.636;2022-09-09T12:01:44;23.10;90.60
59651;DHT22;45954;49.768;8.636;2022-09-09T12:04:13;23.10;90.20
59651;DHT22;45954;49.768;8.636;2022-09-09T12:06:52;22.50;90.60
59651;DHT22;45954;49.768;8.636;2022-09-09T12:09:33;22.40;90.60
59651;DHT22;45954;49.768;8.636;2022-09-09T12:14:55;22.50;90.60
59651;DHT22;45954;49.768;8.636;2022-09-09T12:17:28;22.10;90.90
59651;DHT22;45954;49.768;8.636;2022-09-09T12:20:19;22.20;90.70
59651;DHT22;45954;49.768;8.636;2022-09-09T12:23:19;22.10;90.50
59651;DHT22;45954;49.768;8.636;2022-09-09T12:28:59;22.90;88.90
59651;DHT22;45954;49.768;8.636;2022-09-09T12:39:58;22.20;90.80
59651;DHT22;45954;49.768;8.636;2022-09-09T12:42:28;22.10;90.90
59651;DHT22;45954;49.768;8.636;2022-09-09T12:45:00;22.00;90.80
59651;DHT22;45954;49.768;8.636;2022-09-09T12:50:46;22.30;89.20
59651;DHT22;45954;49.768;8.636;2022-09-09T12:53:27;22.40;89.00
59651;DHT22;45954;49.768;8.636;2022-09-09T12:56:02;22.20;88.40
59651;DHT22;45954;49.768;8.636;2022-09-09T12:58:30;21.90;88.60
59651;DHT22;45954;49.768;8.636;2022-09-09T13:01:02;21.90;88.50
59651;DHT22;45954;49.768;8.636;2022-09-09T13:03:33;21.80;88.30
59651;DHT22;45954;49.768;8.636;2022-09-09T13:06:16;21.70;88.50
59651;DHT22;45954;49.768;8.636;2022-09-09T13:08:45;21.70;88.80
59651;DHT22;45954;49.768;8.636;2022-09-09T13:11:17;21.70;89.90
59651;DHT22;45954;49.768;8.636;2022-09-09T13:13:54;21.70;90.00
59651;DHT22;45954;49.768;8.636;2022-09-09T13:16:33;21.60;90.40
59651;DHT22;45954;49.768;8.636;2022-09-09T13:19:09;21.60;90.30
59651;DHT22;45954;49.768;8.636;2022-09-09T13:21:40;21.50;90.70
59651;DHT22;45954;49.768;8.636;2022-09-09T13:27:03;21.30;90.80
59651;DHT22;45954;49.768;8.636;2022-09-09T13:29:54;21.10;92.10
59651;DHT22;45954;49.768;8.636;2022-09-09T13:32:23;21.00;92.60
59651;DHT22;45954;49.768;8.636;2022-09-09T13:34:59;20.90;92.80
59651;DHT22;45954;49.768;8.636;2022-09-09T13:37:40;20.90;93.00
59651;DHT22;45954;49.768;8.636;2022-09-09T13:40:17;20.70;93.30
59651;DHT22;45954;49.768;8.636;2022-09-09T13:42:45;20.50;94.00
59651;DHT22;45954;49.768;8.636;2022-09-09T13:45:18;20.30;93.50
59651;DHT22;45954;49.768;8.636;2022-09-09T13:47:46;20.40;94.00
59651;DHT22;45954;49.768;8.636;2022-09-09T13:52:54;20.40;93.70
59651;DHT22;45954;49.768;8.636;2022-09-09T13:55:26;20.90;93.90
59651;DHT22;45954;49.768;8.636;2022-09-09T13:58:01;21.20;94.30
59651;DHT22;45954;49.768;8.636;2022-09-09T14:00:34;21.20;93.40
59651;DHT22;45954;49.768;8.636;2022-09-09T14:03:00;21.00;93.40
59651;DHT22;45954;49.768;8.636;2022-09-09T14:05:32;21.00;93.60
59651;DHT22;45954;49.768;8.636;2022-09-09T14:07:59;21.30;93.80
59651;DHT22;45954;49.768;8.636;2022-09-09T14:10:28;21.10;93.70
59651;DHT22;45954;49.768;8.636;2022-09-09T14:12:54;21.70;92.60
59651;DHT22;45954;49.768;8.636;2022-09-09T14:15:20;22.30;92.10
59651;DHT22;45954;49.768;8.636;2022-09-09T14:17:47;23.40;89.90
59651;DHT22;45954;49.768;8.636;2022-09-09T14:20:14;24.00;87.00
59651;DHT22;45954;49.768;8.636;2022-09-09T14:22:41;23.20;87.20
59651;DHT22;45954;49.768;8.636;2022-09-09T14:25:07;22.70;89.10
59651;DHT22;45954;49.768;8.636;2022-09-09T14:27:34;22.60;90.40
59651;DHT22;45954;49.768;8.636;2022-09-09T14:29:59;22.80;89.60
59651;DHT22;45954;49.768;8.636;2022-09-09T14:32:27;22.90;89.30
59651;DHT22;45954;49.768;8.636;2022-09-09T14:34:53;22.70;89.60
59651;DHT22;45954;49.768;8.636;2022-09-09T14:37:19;22.50;90.50
59651;DHT22;45954;49.768;8.636;2022-09-09T14:39:46;22.70;90.20
59651;DHT22;45954;49.768;8.636;2022-09-09T14:42:13;22.70;90.30
59651;DHT22;45954;49.768;8.636;2022-09-09T14:44:39;22.70;90.00
59651;DHT22;45954;49.768;8.636;2022-09-09T14:47:07;22.50;90.70
59651;DHT22;45954;49.768;8.636;2022-09-09T14:49:37;22.60;90.10
59651;DHT22;45954;49.768;8.636;2022-09-09T14:52:04;22.30;90.40
59651;DHT22;45954;49.768;8.636;2022-09-09T14:54:31;22.20;90.70
59651;DHT22;45954;49.768;8.636;2022-09-09T14:56:58;22.20;90.90
59651;DHT22;45954;49.768;8.636;2022-09-09T14:59:24;22.30;90.80
59651;DHT22;45954;49.768;8.636;2022-09-09T15:01:50;21.90;90.80
59651;DHT22;45954;49.768;8.636;2022-09-09T15:04:16;21.40;91.40
59651;DHT22;45954;49.768;8.636;2022-09-09T15:06:45;21.30;91.70
59651;DHT22;45954;49.768;8.636;2022-09-09T15:09:14;21.50;91.60
59651;DHT22;45954;49.768;8.636;2022-09-09T15:11:40;21.50;91.40
59651;DHT22;45954;49.768;8.636;2022-09-09T15:14:08;21.40;91.80
59651;DHT22;45954;49.768;8.636;2022-09-09T15:16:35;21.40;91.70
59651;DHT22;45954;49.768;8.636;2022-09-09T15:19:03;21.30;92.10
59651;DHT22;45954;49.768;8.636;2022-09-09T15:21:34;21.20;92.40
59651;DHT22;45954;49.768;8.636;2022-09-09T15:24:01;21.20;92.10
59651;DHT22;45954;49.768;8.636;2022-09-09T15:26:29;20.90;92.50
59651;DHT22;45954;49.768;8.636;2022-09-09T15:28:56;21.20;92.50
59651;DHT22;45954;49.768;8.636;2022-09-09T15:31:28;21.20;92.70
59651;DHT22;45954;49.768;8.636;2022-09-09T15:33:58;21.00;92.90
59651;DHT22;45954;49.768;8.636;2022-09-09T15:36:36;21.00;93.00
59651;DHT22;45954;49.768;8.636;2022-09-09T15:39:09;21.00;92.90
59651;DHT22;45954;49.768;8.636;2022-09-09T15:41:38;21.00;93.10
59651;DHT22;45954;49.768;8.636;2022-09-09T15:44:05;21.00;92.70
59651;DHT22;45954;49.768;8.636;2022-09-09T15:46:39;20.70;93.30
59651;DHT22;45954;49.768;8.636;2022-09-09T15:51:45;20.60;93.80
59651;DHT22;45954;49.768;8.636;2022-09-09T15:54:15;20.90;93.60
59651;DHT22;45954;49.768;8.636;2022-09-09T15:56:46;20.90;93.70
59651;DHT22;45954;49.768;8.636;2022-09-09T15:59:15;21.00;93.10
59651;DHT22;45954;49.768;8.636;2022-09-09T16:01:42;20.90;93.00
59651;DHT22;45954;49.768;8.636;2022-09-09T16:04:09;20.90;92.60
59651;DHT22;45954;49.768;8.636;2022-09-09T16:06:36;20.90;92.60
59651;DHT22;45954;49.768;8.636;2022-09-09T16:09:04;20.90;92.30
59651;DHT22;45954;49.768;8.636;2022-09-09T16:11:34;20.80;91.90
59651;DHT22;45954;49.768;8.636;2022-09-09T16:14:01;20.90;91.90
59651;DHT22;45954;49.768;8.636;2022-09-09T16:16:30;20.70;92.00
59651;DHT22;45954;49.768;8.636;2022-09-09T16:18:58;20.80;92.20
59651;DHT22;45954;49.768;8.636;2022-09-09T16:21:32;21.10;92.10
59651;DHT22;45954;49.768;8.636;2022-09-09T16:24:02;21.20;92.10
59651;DHT22;45954;49.768;8.636;2022-09-09T16:26:31;21.40;91.90
59651;DHT22;45954;49.768;8.636;2022-09-09T16:29:00;21.30;92.20
59651;DHT22;45954;49.768;8.636;2022-09-09T16:31:28;21.10;92.00
59651;DHT22;45954;49.768;8.636;2022-09-09T16:33:55;21.30;92.00
59651;DHT22;45954;49.768;8.636;2022-09-09T16:36:26;21.00;92.00
59651;DHT22;45954;49.768;8.636;2022-09-09T16:38:54;20.80;92.20
59651;DHT22;45954;49.768;8.636;2022-09-09T16:41:26;20.90;92.20
59651;DHT22;45954;49.768;8.636;2022-09-09T16:43:58;20.90;91.50
59651;DHT22;45954;49.768;8.636;2022-09-09T16:46:27;20.70;91.70
59651;DHT22;45954;49.768;8.636;2022-09-09T16:48:56;20.60;91.80
59651;DHT22;45954;49.768;8.636;2022-09-09T16:51:32;20.30;92.20
59651;DHT22;45954;49.768;8.636;2022-09-09T16:54:01;20.20;92.70
59651;DHT22;45954;49.768;8.636;2022-09-09T16:56:31;20.10;92.90
59651;DHT22;45954;49.768;8.636;2022-09-09T16:59:05;19.80;93.50
59651;DHT22;45954;49.768;8.636;2022-09-09T17:01:34;20.00;93.50
59651;DHT22;45954;49.768;8.636;2022-09-09T17:04:08;19.90;93.80
59651;DHT22;45954;49.768;8.636;2022-09-09T17:06:36;19.90;94.00
59651;DHT22;45954;49.768;8.636;2022-09-09T17:09:07;19.60;94.40
59651;DHT22;45954;49.768;8.636;2022-09-09T17:11:36;19.80;94.70
59651;DHT22;45954;49.768;8.636;2022-09-09T17:14:04;19.70;94.60
59651;DHT22;45954;49.768;8.636;2022-09-09T17:16:33;19.60;94.80
59651;DHT22;45954;49.768;8.636;2022-09-09T17:19:03;19.50;95.00
59651;DHT22;45954;49.768;8.636;2022-09-09T17:21:31;19.50;94.90
59651;DHT22;45954;49.768;8.636;2022-09-09T17:23:58;19.70;95.10
59651;DHT22;45954;49.768;8.636;2022-09-09T17:26:28;19.80;95.00
59651;DHT22;45954;49.768;8.636;2022-09-09T17:28:55;19.70;95.50
59651;DHT22;45954;49.768;8.636;2022-09-09T17:31:24;19.60;95.10
59651;DHT22;45954;49.768;8.636;2022-09-09T17:33:52;19.60;95.30
59651;DHT22;45954;49.768;8.636;2022-09-09T17:36:22;19.60;95.00
59651;DHT22;45954;49.768;8.636;2022-09-09T17:38:53;19.40;95.30
59651;DHT22;45954;49.768;8.636;2022-09-09T17:41:23;19.20;95.70
59651;DHT22;45954;49.768;8.636;2022-09-09T17:43:54;19.20;95.80
59651;DHT22;45954;49.768;8.636;2022-09-09T17:46:22;19.20;95.80
59651;DHT22;45954;49.768;8.636;2022-09-09T17:48:54;19.00;96.00
59651;DHT22;45954;49.768;8.636;2022-09-09T17:51:23;19.20;95.50
59651;DHT22;45954;49.768;8.636;2022-09-09T17:53:53;18.90;96.00
59651;DHT22;45954;49.768;8.636;2022-09-09T17:56:21;19.10;96.10
59651;DHT22;45954;49.768;8.636;2022-09-09T17:58:51;19.30;96.00
59651;DHT22;45954;49.768;8.636;2022-09-09T18:01:21;19.10;95.70
59651;DHT22;45954;49.768;8.636;2022-09-09T18:03:49;19.80;95.80